Time;durP1;ratioP1;P1;durP2;ratioP2;P2;SDS_P1;SDS_P2;PMS_P1;PMS_P2;Temp;Humidity;BMP_temperature;BMP_pressure;BME280_temperature;BME280_humidity;BME280_pressure;Samples;Min_cycle;Max_cycle;Signal;HPM_P1;HPM_P2
2023/04/15 00:02:17;;;;;;;;;;;;;;;18.12;63.41;99888.63;2223716;79;50330;-76
2023/04/15 00:05:18;;;;;;;;;;;;;;;18.10;63.30;99888.00;2244538;78;51718;-76
2023/04/15 00:08:20;;;;;;;;;;;;;;;18.10;63.22;99883.47;2231438;78;51533;-74
2023/04/15 00:11:23;;;;;;;;;;;;;;;18.12;63.35;99885.44;2227207;79;50309;-76
2023/04/15 00:14:25;;;;;;;;;;;;;;;18.11;63.28;99876.25;2245943;79;51654;-75
2023/04/15 00:17:26;;;;;;;;;;;;;;;18.10;63.33;99879.45;2228039;79;50371;-75
2023/04/15 00:20:28;;;;;;;;;;;;;;;18.13;63.39;99876.89;2186578;78;51179;-76
2023/04/15 00:23:30;;;;;;;;;;;;;;;18.05;64.26;99867.98;2216371;80;51480;-75
2023/04/15 00:26:32;;;;;;;;;;;;;;;18.05;64.30;99869.84;2210576;79;51433;-75
2023/04/15 00:29:34;;;;;;;;;;;;;;;18.04;64.33;99881.08;2252784;79;50328;-76
2023/04/15 00:32:36;;;;;;;;;;;;;;;18.03;64.32;99876.76;2212165;79;52484;-76
2023/04/15 00:35:37;;;;;;;;;;;;;;;18.04;64.08;99877.58;2231508;78;51557;-75
2023/04/15 00:38:39;;;;;;;;;;;;;;;18.04;64.04;99866.34;2211968;80;50736;-76
2023/04/15 00:41:40;;;;;;;;;;;;;;;18.02;63.94;99875.09;2219259;78;52487;-77
2023/04/15 00:44:42;;;;;;;;;;;;;;;18.02;63.85;99872.41;2184600;81;51702;-76
2023/04/15 00:47:44;;;;;;;;;;;;;;;18.02;63.83;99868.39;2216785;79;50673;-75
2023/04/15 00:50:46;;;;;;;;;;;;;;;18.02;63.92;99865.72;2231521;79;50949;-74
2023/04/15 00:53:47;;;;;;;;;;;;;;;18.00;64.06;99865.08;2251735;79;51585;-76
2023/04/15 00:56:49;;;;;;;;;;;;;;;17.99;64.20;99858.09;2178897;78;52332;-76
2023/04/15 00:59:51;;;;;;;;;;;;;;;18.00;64.26;99867.77;2213359;79;51682;-75
2023/04/15 01:02:53;;;;;;;;;;;;;;;17.99;64.11;99862.11;2283494;77;50688;-76
2023/04/15 01:05:57;;;;;;;;;;;;;;;17.98;64.14;99864.48;2239324;78;50665;-74
2023/04/15 01:08:57;;;;;;;;;;;;;;;18.00;64.56;99864.27;2261096;78;22965;-75
2023/04/15 01:11:59;;;;;;;;;;;;;;;17.98;64.49;99859.13;2211481;79;51451;-76
2023/04/15 01:15:01;;;;;;;;;;;;;;;18.01;64.34;99858.72;2242519;78;51555;-76
2023/04/15 01:18:02;;;;;;;;;;;;;;;18.03;64.07;99857.17;2242390;78;52183;-76
2023/04/15 01:21:04;;;;;;;;;;;;;;;18.02;64.02;99850.99;2241875;78;52482;-76
2023/04/15 01:24:07;;;;;;;;;;;;;;;18.04;63.78;99848.95;2222236;80;50641;-76
2023/04/15 01:27:09;;;;;;;;;;;;;;;18.05;63.67;99850.59;2241428;78;50039;-76
2023/04/15 01:30:11;;;;;;;;;;;;;;;18.03;63.57;99848.66;2252611;77;50247;-76
2023/04/15 01:33:12;;;;;;;;;;;;;;;18.03;63.45;99844.64;2219591;80;52343;-76
2023/04/15 01:36:14;;;;;;;;;;;;;;;18.03;63.39;99847.80;2240753;79;51475;-77
2023/04/15 01:39:15;;;;;;;;;;;;;;;18.00;63.41;99846.34;2202154;80;51475;-75
2023/04/15 01:42:17;;;;;;;;;;;;;;;18.03;63.61;99844.64;2265064;77;51411;-75
2023/04/15 01:45:18;;;;;;;;;;;;;;;18.06;63.56;99841.55;2223201;78;50582;-75
2023/04/15 01:48:21;;;;;;;;;;;;;;;18.05;63.50;99848.44;2193639;79;50157;-75
2023/04/15 01:51:22;;;;;;;;;;;;;;;18.01;63.86;99846.67;2252281;78;51544;-75
2023/04/15 01:54:24;;;;;;;;;;;;;;;18.01;64.40;99845.34;2250565;78;51406;-74
2023/04/15 01:57:26;;;;;;;;;;;;;;;18.00;63.89;99840.17;2216755;79;52578;-74
2023/04/15 02:00:27;;;;;;;;;;;;;;;17.99;63.93;99839.35;2249682;78;50258;-76
2023/04/15 02:03:29;;;;;;;;;;;;;;;18.00;63.86;99841.52;2258770;78;50417;-76
2023/04/15 02:06:31;;;;;;;;;;;;;;;17.99;63.90;99840.69;2252168;77;49962;-75
2023/04/15 02:09:32;;;;;;;;;;;;;;;18.00;63.92;99836.16;2190272;79;51151;-76
2023/04/15 02:12:34;;;;;;;;;;;;;;;18.00;63.88;99837.50;2240405;79;50320;-76
2023/04/15 02:15:36;;;;;;;;;;;;;;;17.99;63.89;99831.33;2213830;78;50773;-76
2023/04/15 02:18:37;;;;;;;;;;;;;;;17.97;63.95;99829.34;2242459;79;51427;-75
2023/04/15 02:21:39;;;;;;;;;;;;;;;17.98;63.79;99836.38;2212402;79;52684;-76
2023/04/15 02:24:41;;;;;;;;;;;;;;;18.02;63.76;99832.25;2221694;79;51504;-75
2023/04/15 02:27:43;;;;;;;;;;;;;;;17.99;63.88;99833.17;2242570;79;51426;-75
2023/04/15 02:30:46;;;;;;;;;;;;;;;17.97;64.12;99832.55;2202563;80;50204;-75
2023/04/15 02:33:48;;;;;;;;;;;;;;;17.98;64.10;99833.70;2242386;79;50192;-75
2023/04/15 02:36:53;;;;;;;;;;;;;;;17.93;64.21;99829.45;2244669;78;52383;-76
2023/04/15 02:39:52;;;;;;;;;;;;;;;17.94;64.26;99832.43;2224411;78;22294;-76
2023/04/15 02:42:54;;;;;;;;;;;;;;;17.93;64.29;99836.14;2223612;79;50620;-75
2023/04/15 02:45:56;;;;;;;;;;;;;;;17.92;64.31;99831.80;2245053;78;51441;-76
2023/04/15 02:48:58;;;;;;;;;;;;;;;17.93;64.35;99833.47;2220082;78;51554;-75
2023/04/15 02:52:00;;;;;;;;;;;;;;;17.97;64.07;99837.90;2239580;78;22387;-75
2023/04/15 02:55:04;;;;;;;;;;;;;;;17.97;64.07;99839.23;2252734;78;50309;-75
2023/04/15 02:58:06;;;;;;;;;;;;;;;17.95;64.47;99838.60;2222114;79;52618;-77
2023/04/15 03:01:12;;;;;;;;;;;;;;;17.95;64.16;99839.42;2211886;79;49712;-76
2023/04/15 03:04:10;;;;;;;;;;;;;;;17.97;64.09;99845.41;2268473;78;22416;-76
2023/04/15 03:07:12;;;;;;;;;;;;;;;17.96;64.05;99837.59;2276590;78;51463;-75
2023/04/15 03:10:14;;;;;;;;;;;;;;;17.98;63.87;99844.41;2236934;78;52318;-75
2023/04/15 03:13:15;;;;;;;;;;;;;;;17.96;64.52;99843.77;2238034;79;51571;-75
2023/04/15 03:16:17;;;;;;;;;;;;;;;17.97;64.35;99840.58;2222742;79;50729;-77
2023/04/15 03:19:19;;;;;;;;;;;;;;;17.95;64.27;99843.44;2210893;80;51514;-74
2023/04/15 03:22:21;;;;;;;;;;;;;;;17.93;64.43;99844.17;2265351;77;51059;-76
2023/04/15 03:25:22;;;;;;;;;;;;;;;17.93;64.64;99853.54;2212457;79;51537;-75
2023/04/15 03:28:24;;;;;;;;;;;;;;;17.92;64.78;99847.85;2245665;78;53711;-75
2023/04/15 03:31:25;;;;;;;;;;;;;;;17.93;64.55;99845.52;2212766;79;50642;-76
2023/04/15 03:34:27;;;;;;;;;;;;;;;17.93;64.60;99848.67;2232352;78;52637;-75
2023/04/15 03:37:28;;;;;;;;;;;;;;;17.98;64.36;99847.56;2215890;78;50664;-75
2023/04/15 03:40:30;;;;;;;;;;;;;;;17.98;64.10;99844.41;2242811;78;51442;-75
2023/04/15 03:43:32;;;;;;;;;;;;;;;17.98;64.16;99853.77;2225795;79;51485;-76
2023/04/15 03:46:33;;;;;;;;;;;;;;;17.96;63.98;99839.75;2214475;78;49930;-77
2023/04/15 03:49:36;;;;;;;;;;;;;;;17.97;63.95;99836.04;2234407;78;50257;-77
2023/04/15 03:52:37;;;;;;;;;;;;;;;17.95;64.05;99847.45;2226585;78;50629;-75
2023/04/15 03:55:39;;;;;;;;;;;;;;;17.95;63.99;99853.33;2245689;78;50660;-74
2023/04/15 03:58:40;;;;;;;;;;;;;;;17.96;63.82;99854.48;2204231;78;50961;-78
2023/04/15 04:01:42;;;;;;;;;;;;;;;17.95;63.79;99846.11;2214137;80;51400;-76
2023/04/15 04:04:43;;;;;;;;;;;;;;;17.99;63.84;99853.25;2212981;78;51442;-76
2023/04/15 04:07:46;;;;;;;;;;;;;;;17.96;63.94;99854.48;2234263;78;51359;-75
2023/04/15 04:10:47;;;;;;;;;;;;;;;17.98;63.90;99859.13;2284277;77;51486;-78
2023/04/15 04:13:49;;;;;;;;;;;;;;;17.97;63.70;99849.94;2219142;79;51337;-77
2023/04/15 04:16:50;;;;;;;;;;;;;;;17.98;63.64;99853.77;2262101;78;51444;-77
2023/04/15 04:19:52;;;;;;;;;;;;;;;17.98;63.63;99853.77;2236360;79;51500;-75
2023/04/15 04:22:54;;;;;;;;;;;;;;;17.99;63.61;99859.95;2221001;79;51521;-75
2023/04/15 04:25:55;;;;;;;;;;;;;;;17.97;63.53;99862.81;2226568;78;50744;-76
2023/04/15 04:28:57;;;;;;;;;;;;;;;18.00;63.49;99858.91;2237211;78;50757;-75
2023/04/15 04:31:58;;;;;;;;;;;;;;;17.97;63.84;99860.13;2234543;78;51539;-76
2023/04/15 04:35:00;;;;;;;;;;;;;;;17.95;63.90;99858.16;2263754;78;51520;-73
2023/04/15 04:38:02;;;;;;;;;;;;;;;17.94;63.67;99859.19;2235646;79;51422;-73
2023/04/15 04:41:03;;;;;;;;;;;;;;;17.91;63.28;99860.94;2204305;79;51432;-73
2023/04/15 04:44:05;;;;;;;;;;;;;;;17.95;62.98;99864.84;2277866;78;50200;-73
2023/04/15 04:47:06;;;;;;;;;;;;;;;17.92;62.22;99861.75;2241341;78;52461;-73
2023/04/15 04:50:09;;;;;;;;;;;;;;;17.89;61.52;99856.28;2226668;78;52333;-74
2023/04/15 04:53:10;;;;;;;;;;;;;;;17.89;61.04;99866.98;2252933;78;51511;-73
2023/04/15 04:56:12;;;;;;;;;;;;;;;17.92;61.47;99867.92;2270421;78;50743;-74
2023/04/15 04:59:14;;;;;;;;;;;;;;;17.91;61.07;99872.16;2228895;79;51742;-75
2023/04/15 05:02:15;;;;;;;;;;;;;;;17.90;62.63;99872.64;2270650;78;51486;-74
2023/04/15 05:05:17;;;;;;;;;;;;;;;17.93;62.10;99880.30;2276199;78;50402;-74
2023/04/15 05:08:18;;;;;;;;;;;;;;;17.96;61.56;99878.56;2257767;78;50415;-74
2023/04/15 05:11:20;;;;;;;;;;;;;;;17.97;62.42;99889.58;2221384;79;52538;-74
2023/04/15 05:14:22;;;;;;;;;;;;;;;17.98;62.45;99880.54;2232950;79;51577;-74
2023/04/15 05:17:23;;;;;;;;;;;;;;;17.98;62.56;99885.89;2264670;77;51443;-74
2023/04/15 05:20:25;;;;;;;;;;;;;;;18.01;61.86;99892.19;2212663;78;51483;-74
2023/04/15 05:23:26;;;;;;;;;;;;;;;17.99;62.01;99889.39;2176702;79;51262;-72
2023/04/15 05:26:28;;;;;;;;;;;;;;;17.98;62.29;99891.25;2234776;79;50617;-73
2023/04/15 05:29:30;;;;;;;;;;;;;;;17.96;61.83;99889.27;2233397;79;50576;-74
2023/04/15 05:32:31;;;;;;;;;;;;;;;17.95;61.86;99893.47;2262598;78;50641;-73
2023/04/15 05:35:33;;;;;;;;;;;;;;;17.95;61.68;99895.63;2249185;78;51655;-74
2023/04/15 05:38:34;;;;;;;;;;;;;;;17.91;61.72;99893.05;2223005;78;50645;-74
2023/04/15 05:41:36;;;;;;;;;;;;;;;17.91;61.76;99897.58;2247510;78;51398;-74
2023/04/15 05:44:38;;;;;;;;;;;;;;;17.90;61.82;99899.41;2239208;79;50706;-74
2023/04/15 05:47:40;;;;;;;;;;;;;;;17.90;61.87;99900.75;2224323;79;51684;-74
2023/04/15 05:50:41;;;;;;;;;;;;;;;17.90;61.84;99899.41;2248450;78;50748;-75
2023/04/15 05:53:44;;;;;;;;;;;;;;;17.88;61.74;99892.11;2227717;78;51430;-76
2023/04/15 05:56:46;;;;;;;;;;;;;;;17.87;61.68;99890.44;2239815;78;50689;-75
2023/04/15 05:59:48;;;;;;;;;;;;;;;17.87;61.68;99897.65;2199354;79;51912;-74
2023/04/15 06:02:50;;;;;;;;;;;;;;;17.86;61.66;99892.81;2279102;78;51510;-75
2023/04/15 06:05:52;;;;;;;;;;;;;;;17.86;61.69;99903.52;2253675;78;51480;-75
2023/04/15 06:08:54;;;;;;;;;;;;;;;17.86;61.66;99888.80;2275164;78;50251;-76
2023/04/15 06:11:56;;;;;;;;;;;;;;;17.89;61.66;99894.27;2237115;78;51799;-74
2023/04/15 06:14:58;;;;;;;;;;;;;;;17.95;61.98;99894.30;2244245;78;51612;-74
2023/04/15 06:17:59;;;;;;;;;;;;;;;18.01;61.70;99901.55;2224671;78;51470;-74
2023/04/15 06:21:01;;;;;;;;;;;;;;;18.08;61.45;99890.05;2243304;79;51420;-73
2023/04/15 06:24:03;;;;;;;;;;;;;;;18.06;61.34;99896.44;2227699;78;52321;-72
2023/04/15 06:27:04;;;;;;;;;;;;;;;18.06;61.30;99897.77;2224539;80;51480;-73
2023/04/15 06:30:06;;;;;;;;;;;;;;;18.08;61.18;99900.75;2232774;78;51639;-73
2023/04/15 06:33:09;;;;;;;;;;;;;;;18.08;61.07;99900.75;2264097;78;51495;-72
2023/04/15 06:36:11;;;;;;;;;;;;;;;18.09;60.97;99904.58;2257444;77;50695;-72
2023/04/15 06:39:12;;;;;;;;;;;;;;;18.04;61.08;99899.81;2243668;78;50686;-73
2023/04/15 06:42:14;;;;;;;;;;;;;;;18.00;60.84;99907.09;2248622;78;50774;-72
2023/04/15 06:45:16;;;;;;;;;;;;;;;18.00;60.97;99915.13;2246776;78;50894;-71
2023/04/15 06:48:18;;;;;;;;;;;;;;;17.99;61.12;99920.99;2212559;78;51677;-73
2023/04/15 06:51:20;;;;;;;;;;;;;;;18.04;60.85;99927.10;2221233;79;50661;-73
2023/04/15 06:54:21;;;;;;;;;;;;;;;18.15;60.59;99919.02;2237821;78;50815;-72
2023/04/15 06:57:23;;;;;;;;;;;;;;;18.23;60.53;99925.55;2253243;77;51534;-73
2023/04/15 07:00:25;;;;;;;;;;;;;;;18.27;60.46;99933.52;2236735;78;52470;-71
2023/04/15 07:03:26;;;;;;;;;;;;;;;18.28;60.43;99937.83;2217356;79;51501;-71
2023/04/15 07:06:28;;;;;;;;;;;;;;;18.23;60.54;99934.40;2275730;78;50435;-71
2023/04/15 07:09:30;;;;;;;;;;;;;;;18.21;60.55;99947.19;2275646;77;51525;-71
2023/04/15 07:12:31;;;;;;;;;;;;;;;18.19;60.50;99949.23;2240896;78;50100;-71
2023/04/15 07:15:33;;;;;;;;;;;;;;;18.18;60.56;99947.55;2258403;78;51555;-71
2023/04/15 07:18:34;;;;;;;;;;;;;;;18.21;60.43;99955.22;2230874;78;50660;-72
2023/04/15 07:21:36;;;;;;;;;;;;;;;18.11;60.76;99949.88;2216962;79;50672;-72
2023/04/15 07:24:38;;;;;;;;;;;;;;;18.11;60.67;99961.92;2220087;79;51206;-72
2023/04/15 07:27:39;;;;;;;;;;;;;;;18.13;60.53;99954.53;2249303;78;50657;-72
2023/04/15 07:30:41;;;;;;;;;;;;;;;18.12;60.56;99959.06;2239974;78;50656;-72
2023/04/15 07:33:42;;;;;;;;;;;;;;;18.10;61.26;99969.66;2239489;79;50431;-72
2023/04/15 07:36:44;;;;;;;;;;;;;;;18.04;61.29;99965.40;2222771;78;51461;-71
2023/04/15 07:39:46;;;;;;;;;;;;;;;18.01;62.00;99973.01;2202952;80;50456;-71
2023/04/15 07:42:48;;;;;;;;;;;;;;;17.99;61.93;99974.53;2244285;79;51506;-73
2023/04/15 07:45:50;;;;;;;;;;;;;;;17.97;61.87;99980.58;2233798;78;51498;-71
2023/04/15 07:48:51;;;;;;;;;;;;;;;17.95;61.67;99975.92;2211502;78;51109;-72
2023/04/15 07:51:53;;;;;;;;;;;;;;;17.93;61.71;99975.32;2209962;80;50353;-72
2023/04/15 07:54:55;;;;;;;;;;;;;;;17.97;61.68;99971.22;2223099;79;51610;-72
2023/04/15 07:57:57;;;;;;;;;;;;;;;17.98;61.53;99972.03;2203309;80;50761;-72
2023/04/15 08:00:58;;;;;;;;;;;;;;;18.06;61.18;99976.75;2219457;78;51670;-72
2023/04/15 08:04:00;;;;;;;;;;;;;;;18.13;60.94;99975.95;2251741;78;51546;-72
2023/04/15 08:07:01;;;;;;;;;;;;;;;18.14;60.81;99974.94;2247765;79;51545;-74
2023/04/15 08:10:03;;;;;;;;;;;;;;;18.19;60.62;99980.54;2246416;78;51571;-73
2023/04/15 08:13:05;;;;;;;;;;;;;;;18.20;60.59;99980.84;2253734;78;51011;-73
2023/04/15 08:16:22;;;;;;;;;;;;;;;18.20;60.54;99986.20;2250062;78;50531;-73
2023/04/15 08:19:20;;;;;;;;;;;;;;;18.17;60.71;99991.95;2214522;79;22256;-73
2023/04/15 08:22:22;;;;;;;;;;;;;;;18.15;60.76;99991.31;2238923;78;51514;-73
2023/04/15 08:25:23;;;;;;;;;;;;;;;18.13;60.77;99994.17;2214475;78;52355;-73
2023/04/15 08:28:25;;;;;;;;;;;;;;;18.03;61.33;99993.20;2238484;78;51503;-73
2023/04/15 08:31:26;;;;;;;;;;;;;;;18.00;61.25;99998.92;2259652;78;50245;-72
2023/04/15 08:34:28;;;;;;;;;;;;;;;18.02;61.08;99999.56;2259100;78;50260;-73
2023/04/15 08:37:30;;;;;;;;;;;;;;;18.11;60.79;99997.58;2238639;78;50401;-72
2023/04/15 08:40:33;;;;;;;;;;;;;;;18.16;60.60;99999.16;2238767;78;50285;-73
2023/04/15 08:43:35;;;;;;;;;;;;;;;18.20;60.46;100007.62;2258787;78;50185;-73
2023/04/15 08:46:36;;;;;;;;;;;;;;;18.17;60.45;100004.82;2250384;78;50700;-72
2023/04/15 08:49:39;;;;;;;;;;;;;;;18.21;60.34;100010.59;2202430;80;50995;-72
2023/04/15 08:52:41;;;;;;;;;;;;;;;18.19;60.35;100004.64;2222913;80;51569;-72
2023/04/15 08:55:46;;;;;;;;;;;;;;;18.17;60.43;100008.02;2222940;80;51527;-72
2023/04/15 08:58:48;;;;;;;;;;;;;;;18.19;60.28;100016.17;2223191;80;50896;-73
2023/04/15 09:01:50;;;;;;;;;;;;;;;18.14;60.52;100015.93;2222950;80;51639;-72
2023/04/15 09:04:51;;;;;;;;;;;;;;;18.02;60.89;100010.27;2201875;80;51643;-73
2023/04/15 09:07:53;;;;;;;;;;;;;;;18.03;60.76;100003.91;2222936;80;51433;-73
2023/04/15 09:10:55;;;;;;;;;;;;;;;18.10;60.59;100007.14;2202622;79;50145;-73
2023/04/15 09:13:56;;;;;;;;;;;;;;;18.16;60.38;100013.89;2179572;80;52361;-72
2023/04/15 09:17:02;;;;;;;;;;;;;;;18.18;60.27;100020.37;2233202;79;50234;-72
2023/04/15 09:20:10;;;;;;;;;;;;;;;18.16;60.23;100016.56;2222220;79;51544;-73
2023/04/15 09:23:12;;;;;;;;;;;;;;;18.16;60.19;100024.59;2206910;79;50372;-73
2023/04/15 09:26:14;;;;;;;;;;;;;;;18.16;60.19;100019.73;2248751;78;50134;-72
2023/04/15 09:29:17;;;;;;;;;;;;;;;18.13;60.25;100022.28;2248761;78;50771;-73
2023/04/15 09:32:22;;;;;;;;;;;;;;;18.11;60.31;100024.84;2238996;78;51573;-73
2023/04/15 09:35:24;;;;;;;;;;;;;;;18.09;60.37;100034.95;2259415;78;50065;-72
2023/04/15 09:38:26;;;;;;;;;;;;;;;18.04;60.81;100042.22;2196432;79;50895;-72
2023/04/15 09:41:27;;;;;;;;;;;;;;;18.01;60.67;100042.09;2214942;78;51196;-73
2023/04/15 09:44:29;;;;;;;;;;;;;;;18.04;60.56;100042.22;2240715;78;51595;-72
2023/04/15 09:47:31;;;;;;;;;;;;;;;18.14;60.33;100048.58;2250013;78;50807;-73
2023/04/15 09:50:32;;;;;;;;;;;;;;;18.17;60.16;100041.48;2228354;79;51820;-72
2023/04/15 09:53:35;;;;;;;;;;;;;;;18.19;60.06;100047.48;2240394;79;51481;-72
2023/04/15 09:56:37;;;;;;;;;;;;;;;18.20;60.02;100046.44;2253023;78;51554;-72
2023/04/15 09:59:39;;;;;;;;;;;;;;;18.21;59.91;100052.10;2239476;79;50309;-72
2023/04/15 10:02:43;;;;;;;;;;;;;;;18.19;59.91;100052.83;2235087;78;51206;-73
2023/04/15 10:05:45;;;;;;;;;;;;;;;18.19;59.90;100063.03;2223365;80;51512;-73
2023/04/15 10:08:46;;;;;;;;;;;;;;;18.17;59.94;100062.91;2212522;79;50742;-72
2023/04/15 10:11:48;;;;;;;;;;;;;;;18.18;59.93;100064.55;2247476;79;51552;-72
2023/04/15 10:14:55;;;;;;;;;;;;;;;18.11;60.16;100067.68;2229838;78;52369;-72
2023/04/15 10:17:56;;;;;;;;;;;;;;;18.08;60.36;100074.77;2251733;78;50322;-72
2023/04/15 10:20:58;;;;;;;;;;;;;;;18.10;60.21;100076.74;2241163;79;50639;-72
2023/04/15 10:24:00;;;;;;;;;;;;;;;18.20;59.93;100077.23;2241196;79;50703;-73
2023/04/15 10:27:03;;;;;;;;;;;;;;;18.23;59.86;100085.70;2241067;79;52326;-72
2023/04/15 10:30:05;;;;;;;;;;;;;;;18.22;59.85;100082.72;2223127;80;50320;-73
2023/04/15 10:33:07;;;;;;;;;;;;;;;18.23;59.85;100073.65;2223069;80;50405;-73
2023/04/15 10:36:09;;;;;;;;;;;;;;;18.25;59.80;100077.48;2222842;79;51560;-72
2023/04/15 10:39:28;;;;;;;;;;;;;;;18.24;59.72;100075.84;2204498;79;52373;-72
2023/04/15 10:42:34;;;;;;;;;;;;;;;18.22;59.81;100075.20;2282139;77;50677;-72
2023/04/15 10:45:36;;;;;;;;;;;;;;;18.16;59.95;100088.01;2233361;79;50640;-71
2023/04/15 10:48:37;;;;;;;;;;;;;;;18.12;60.18;100078.20;2269239;77;50638;-73
2023/04/15 10:51:44;;;;;;;;;;;;;;;18.07;60.33;100085.99;2247311;78;50442;-73
2023/04/15 10:54:43;;;;;;;;;;;;;;;18.10;60.22;100087.45;2238915;79;21768;-73
2023/04/15 10:57:45;;;;;;;;;;;;;;;18.19;60.02;100086.30;2214237;78;51406;-73
2023/04/15 11:00:48;;;;;;;;;;;;;;;18.27;59.83;100092.85;2257267;78;50125;-73
2023/04/15 11:03:50;;;;;;;;;;;;;;;18.26;59.84;100097.39;2230997;79;50990;-74
2023/04/15 11:06:52;;;;;;;;;;;;;;;18.24;59.86;100093.25;2210095;79;52662;-72
2023/04/15 11:09:53;;;;;;;;;;;;;;;18.22;59.88;100096.11;2250088;78;51525;-73
2023/04/15 11:13:00;;;;;;;;;;;;;;;18.22;59.89;100108.67;2289960;77;50213;-73
2023/04/15 11:16:01;;;;;;;;;;;;;;;18.23;59.85;100110.31;2253693;77;51531;-73
2023/04/15 11:19:03;;;;;;;;;;;;;;;18.19;59.92;100110.41;2215492;79;51287;-73
2023/04/15 11:22:11;;;;;;;;;;;;;;;18.19;59.91;100113.09;2237720;78;50617;-72
2023/04/15 11:25:14;;;;;;;;;;;;;;;18.12;60.17;100117.03;2257162;78;50686;-73
2023/04/15 11:28:16;;;;;;;;;;;;;;;18.10;60.23;100115.05;2242846;78;50677;-72
2023/04/15 11:31:18;;;;;;;;;;;;;;;18.14;60.11;100120.34;2261630;78;51464;-72
2023/04/15 11:34:23;;;;;;;;;;;;;;;18.18;59.99;100122.12;2239555;78;51520;-73
2023/04/15 11:37:29;;;;;;;;;;;;;;;18.22;59.86;100124.73;2213021;78;50275;-74
2023/04/15 11:40:32;;;;;;;;;;;;;;;18.24;59.76;100131.56;2254063;78;50310;-74
2023/04/15 11:43:34;;;;;;;;;;;;;;;18.25;59.73;100133.20;2260732;78;50720;-74
2023/04/15 11:46:36;;;;;;;;;;;;;;;18.25;59.71;100137.73;2280050;77;50213;-72
2023/04/15 11:49:40;;;;;;;;;;;;;;;18.23;59.72;100135.23;2237873;79;51517;-72
2023/04/15 11:52:41;;;;;;;;;;;;;;;18.21;59.80;100141.81;2238942;79;22376;-72
2023/04/15 11:55:43;;;;;;;;;;;;;;;18.21;59.83;100150.70;2237689;78;49516;-71
2023/04/15 11:58:45;;;;;;;;;;;;;;;18.12;60.15;100154.52;2255047;78;50756;-71
2023/04/15 12:01:46;;;;;;;;;;;;;;;18.09;60.28;100151.41;2250803;78;50247;-71
2023/04/15 12:04:48;;;;;;;;;;;;;;;18.14;60.13;100151.66;2250522;78;50272;-74
2023/04/15 12:07:59;;;;;;;;;;;;;;;18.18;60.01;100156.92;2222335;79;50291;-71
2023/04/15 12:11:01;;;;;;;;;;;;;;;18.25;59.85;100156.48;2222443;79;51557;-72
2023/04/15 12:14:04;;;;;;;;;;;;;;;18.25;59.79;100157.82;2222052;80;51476;-72
2023/04/15 12:17:06;;;;;;;;;;;;;;;18.22;59.84;100160.38;2232288;79;52202;-71
2023/04/15 12:20:07;;;;;;;;;;;;;;;18.22;59.80;100167.59;2231850;78;52514;-72
2023/04/15 12:23:09;;;;;;;;;;;;;;;18.22;59.82;100172.42;2256438;78;50665;-72
2023/04/15 12:26:11;;;;;;;;;;;;;;;18.21;59.88;100172.12;2252509;79;50049;-72
2023/04/15 12:29:13;;;;;;;;;;;;;;;18.18;59.98;100172.99;2256616;78;50377;-72
2023/04/15 12:32:15;;;;;;;;;;;;;;;18.18;60.02;100174.33;2256517;78;51204;-73
2023/04/15 12:35:18;;;;;;;;;;;;;;;18.14;60.17;100179.25;2221372;78;51495;-72
2023/04/15 12:38:19;;;;;;;;;;;;;;;18.14;60.19;100181.94;2223631;79;50350;-71
2023/04/15 12:41:23;;;;;;;;;;;;;;;18.19;60.24;100180.85;2238310;79;50647;-71
2023/04/15 12:44:24;;;;;;;;;;;;;;;18.21;60.23;100189.53;2227074;78;25005;-72
2023/04/15 12:47:26;;;;;;;;;;;;;;;18.25;60.25;100184.61;2239454;78;52336;-72
2023/04/15 12:50:27;;;;;;;;;;;;;;;18.24;60.30;100184.30;2229692;79;51463;-72
2023/04/15 12:53:29;;;;;;;;;;;;;;;18.25;60.28;100196.14;2243383;79;51462;-72
2023/04/15 12:56:31;;;;;;;;;;;;;;;18.28;60.28;100198.94;2213374;79;51122;-72
2023/04/15 12:59:33;;;;;;;;;;;;;;;18.28;60.33;100198.94;2222025;80;51716;-72
2023/04/15 13:02:34;;;;;;;;;;;;;;;18.24;60.34;100200.36;2222290;80;51493;-71
2023/04/15 13:05:38;;;;;;;;;;;;;;;18.18;60.43;100203.79;2224278;80;51450;-71
2023/04/15 13:08:40;;;;;;;;;;;;;;;18.14;60.53;100203.36;2200544;80;52382;-72
2023/04/15 13:11:42;;;;;;;;;;;;;;;18.15;60.48;100203.66;2224595;80;50711;-72
2023/04/15 13:14:43;;;;;;;;;;;;;;;18.14;60.47;100207.89;2222172;80;51455;-72
2023/04/15 13:17:45;;;;;;;;;;;;;;;18.14;60.42;100209.22;2235705;79;51541;-72
2023/04/15 13:20:47;;;;;;;;;;;;;;;18.13;60.43;100213.73;2281251;77;51771;-72
2023/04/15 13:23:49;;;;;;;;;;;;;;;18.15;60.45;100213.55;2290220;77;52310;-73
2023/04/15 13:26:52;;;;;;;;;;;;;;;18.14;60.53;100214.58;2263199;78;51555;-71
2023/04/15 13:29:54;;;;;;;;;;;;;;;18.08;60.84;100215.32;2265248;78;50508;-71
2023/04/15 13:32:56;;;;;;;;;;;;;;;18.04;60.96;100217.56;2289482;77;51555;-72
2023/04/15 13:35:57;;;;;;;;;;;;;;;18.04;61.01;100219.72;2253809;78;51484;-72
2023/04/15 13:38:59;;;;;;;;;;;;;;;18.06;60.97;100220.37;2263680;77;50261;-72
2023/04/15 13:42:01;;;;;;;;;;;;;;;18.03;60.83;100223.44;2214339;79;51495;-72
2023/04/15 13:45:03;;;;;;;;;;;;;;;18.06;60.74;100223.56;2233758;78;52411;-71
2023/04/15 13:48:05;;;;;;;;;;;;;;;18.13;60.78;100228.45;2202980;79;50105;-72
2023/04/15 13:51:06;;;;;;;;;;;;;;;18.22;60.66;100230.00;2215636;79;50695;-72
2023/04/15 13:54:08;;;;;;;;;;;;;;;18.33;60.40;100239.38;2235000;78;51400;-71
2023/04/15 13:57:09;;;;;;;;;;;;;;;18.34;60.33;100242.39;2196964;79;51115;-73
2023/04/15 14:00:12;;;;;;;;;;;;;;;18.37;60.35;100241.14;2242864;79;50454;-71
2023/04/15 14:03:13;;;;;;;;;;;;;;;18.36;60.40;100243.00;2225862;79;50795;-70
2023/04/15 14:06:15;;;;;;;;;;;;;;;18.36;60.52;100251.55;2206204;78;50093;-70
2023/04/15 14:09:16;;;;;;;;;;;;;;;18.33;60.62;100249.27;2205314;80;51169;-71
2023/04/15 14:12:18;;;;;;;;;;;;;;;18.28;60.66;100252.51;2222313;80;50795;-70
2023/04/15 14:15:19;;;;;;;;;;;;;;;18.30;60.48;100259.84;2222768;79;51415;-71
2023/04/15 14:18:21;;;;;;;;;;;;;;;18.25;60.52;100263.61;2221563;79;51524;-71
2023/04/15 14:21:23;;;;;;;;;;;;;;;18.20;60.54;100263.34;2240134;78;52322;-72
2023/04/15 14:24:24;;;;;;;;;;;;;;;18.16;60.63;100261.57;2239918;78;51477;-70
2023/04/15 14:27:26;;;;;;;;;;;;;;;18.17;60.82;100273.11;2261094;77;50722;-71
2023/04/15 14:30:27;;;;;;;;;;;;;;;18.19;60.78;100271.08;2240111;78;50664;-72
2023/04/15 14:33:29;;;;;;;;;;;;;;;18.21;60.77;100277.05;2246403;79;51155;-72
2023/04/15 14:36:31;;;;;;;;;;;;;;;18.21;60.74;100281.06;2208244;80;50312;-71
2023/04/15 14:39:32;;;;;;;;;;;;;;;18.30;60.88;100281.27;2202546;80;51515;-74
2023/04/15 14:42:34;;;;;;;;;;;;;;;18.26;60.96;100282.66;2202547;80;50364;-73
2023/04/15 14:45:36;;;;;;;;;;;;;;;18.20;61.00;100287.45;2185099;79;52403;-74
2023/04/15 14:48:38;;;;;;;;;;;;;;;18.23;61.02;100291.91;2226095;78;51502;-74
2023/04/15 14:51:40;;;;;;;;;;;;;;;18.26;60.94;100298.25;2277734;78;50610;-73
2023/04/15 14:54:41;;;;;;;;;;;;;;;18.18;60.41;100304.20;2236947;78;50693;-73
2023/04/15 14:57:43;;;;;;;;;;;;;;;18.15;60.22;100300.05;2220422;79;53440;-73
2023/04/15 15:00:44;;;;;;;;;;;;;;;18.08;60.38;100303.16;2241722;78;51525;-73
2023/04/15 15:03:46;;;;;;;;;;;;;;;18.09;60.33;100304.84;2234277;78;51421;-72
2023/04/15 15:06:48;;;;;;;;;;;;;;;18.06;60.13;100303.36;2241053;78;51647;-73
2023/04/15 15:09:49;;;;;;;;;;;;;;;18.03;60.03;100314.45;2215677;78;52357;-73
2023/04/15 15:12:51;;;;;;;;;;;;;;;18.02;60.15;100315.45;2221182;79;51458;-73
2023/04/15 15:15:52;;;;;;;;;;;;;;;18.00;60.08;100314.80;2239527;79;51524;-74
2023/04/15 15:18:54;;;;;;;;;;;;;;;18.04;60.22;100318.78;2234678;78;51329;-74
2023/04/15 15:21:56;;;;;;;;;;;;;;;18.10;60.09;100319.88;2202186;80;51250;-74
2023/04/15 15:24:58;;;;;;;;;;;;;;;18.16;60.03;100331.67;2221772;79;50716;-74
2023/04/15 15:28:00;;;;;;;;;;;;;;;18.30;59.69;100328.14;2240049;78;50298;-74
2023/04/15 15:31:01;;;;;;;;;;;;;;;18.40;59.44;100339.38;2239710;78;50352;-72
2023/04/15 15:34:03;;;;;;;;;;;;;;;18.46;59.30;100343.15;2218867;79;50245;-73
2023/04/15 15:37:05;;;;;;;;;;;;;;;18.45;59.30;100339.64;2251402;79;51525;-74
2023/04/15 15:40:06;;;;;;;;;;;;;;;18.45;59.33;100344.18;2251555;77;51500;-74
2023/04/15 15:43:08;;;;;;;;;;;;;;;18.42;59.60;100344.05;2251372;79;52259;-73